MDC weather

Sam Ratulangi Airport
Manado-Celebes Island, Sulawesi Utara, Indonesia

Public forecast

Using degrees Celsius for public forecast. Weather courtesy of forecast.io.

METAR (pilot weather report)

Retrieved 2019/03/23 14:00 UTC (8 minutes ago):

WAMM 231400Z 00000KT 9999 FEW022 24/23 Q1012 NOSIG

TAF (pilot weather forecast)

Retrieved 2019/03/23 12:20 UTC (2 hours ago):

TAF WAMM 231100Z 2312/2418 04002KT 9000 FEW022 BECMG 2323/2401 33008KT